sensor_id;sensor_type;location;lat;lon;timestamp;temperature;humidity
13123;DHT22;6627;50.920;12.050;2023-04-15T00:00:21;7.00;99.90
13123;DHT22;6627;50.920;12.050;2023-04-15T00:02:48;7.00;99.90
13123;DHT22;6627;50.920;12.050;2023-04-15T00:05:16;7.00;99.90
13123;DHT22;6627;50.920;12.050;2023-04-15T00:07:45;7.10;99.90
13123;DHT22;6627;50.920;12.050;2023-04-15T00:10:14;7.00;99.90
13123;DHT22;6627;50.920;12.050;2023-04-15T00:12:41;7.00;99.90
13123;DHT22;6627;50.920;12.050;2023-04-15T00:15:09;6.90;99.90
13123;DHT22;6627;50.920;12.050;2023-04-15T00:17:37;7.00;99.90
13123;DHT22;6627;50.920;12.050;2023-04-15T00:22:33;7.00;99.90
13123;DHT22;6627;50.920;12.050;2023-04-15T00:25:01;7.00;99.90
13123;DHT22;6627;50.920;12.050;2023-04-15T00:27:30;7.00;99.90
13123;DHT22;6627;50.920;12.050;2023-04-15T00:29:57;7.00;99.90
13123;DHT22;6627;50.920;12.050;2023-04-15T00:32:24;6.90;99.90
13123;DHT22;6627;50.920;12.050;2023-04-15T00:37:18;7.00;99.90
13123;DHT22;6627;50.920;12.050;2023-04-15T00:39:46;7.00;99.90
13123;DHT22;6627;50.920;12.050;2023-04-15T00:42:13;6.90;99.90
13123;DHT22;6627;50.920;12.050;2023-04-15T00:44:42;7.00;99.90
13123;DHT22;6627;50.920;12.050;2023-04-15T00:47:10;7.00;99.90
13123;DHT22;6627;50.920;12.050;2023-04-15T00:49:47;7.00;99.90
13123;DHT22;6627;50.920;12.050;2023-04-15T00:52:14;6.90;99.90
13123;DHT22;6627;50.920;12.050;2023-04-15T00:54:41;6.90;99.90
13123;DHT22;6627;50.920;12.050;2023-04-15T00:57:09;6.90;99.90
13123;DHT22;6627;50.920;12.050;2023-04-15T00:59:37;6.90;99.90
13123;DHT22;6627;50.920;12.050;2023-04-15T01:02:05;6.90;99.90
13123;DHT22;6627;50.920;12.050;2023-04-15T01:04:33;6.90;99.90
13123;DHT22;6627;50.920;12.050;2023-04-15T01:07:01;6.90;99.90
13123;DHT22;6627;50.920;12.050;2023-04-15T01:09:29;6.90;99.90
13123;DHT22;6627;50.920;12.050;2023-04-15T01:14:24;6.90;99.90
13123;DHT22;6627;50.920;12.050;2023-04-15T01:16:52;6.90;99.90
13123;DHT22;6627;50.920;12.050;2023-04-15T01:19:21;6.80;99.90
13123;DHT22;6627;50.920;12.050;2023-04-15T01:21:48;6.80;99.90
13123;DHT22;6627;50.920;12.050;2023-04-15T01:26:46;6.80;99.90
13123;DHT22;6627;50.920;12.050;2023-04-15T01:29:15;6.70;99.90
13123;DHT22;6627;50.920;12.050;2023-04-15T01:31:49;6.70;99.90
13123;DHT22;6627;50.920;12.050;2023-04-15T01:34:18;6.70;99.90
13123;DHT22;6627;50.920;12.050;2023-04-15T01:36:45;6.80;99.90
13123;DHT22;6627;50.920;12.050;2023-04-15T01:39:13;6.80;99.90
13123;DHT22;6627;50.920;12.050;2023-04-15T01:41:40;6.80;99.90
13123;DHT22;6627;50.920;12.050;2023-04-15T01:44:09;6.70;99.90
13123;DHT22;6627;50.920;12.050;2023-04-15T01:46:36;6.70;99.90
13123;DHT22;6627;50.920;12.050;2023-04-15T01:49:04;6.70;99.90
13123;DHT22;6627;50.920;12.050;2023-04-15T01:51:31;6.80;99.90
13123;DHT22;6627;50.920;12.050;2023-04-15T01:53:59;6.80;99.90
13123;DHT22;6627;50.920;12.050;2023-04-15T01:56:26;6.80;99.90
13123;DHT22;6627;50.920;12.050;2023-04-15T02:01:23;6.80;99.90
13123;DHT22;6627;50.920;12.050;2023-04-15T02:03:50;6.80;99.90
13123;DHT22;6627;50.920;12.050;2023-04-15T02:06:18;6.70;99.90
13123;DHT22;6627;50.920;12.050;2023-04-15T02:08:45;6.70;99.90
13123;DHT22;6627;50.920;12.050;2023-04-15T02:11:12;6.80;99.90
13123;DHT22;6627;50.920;12.050;2023-04-15T02:13:40;6.80;99.90
13123;DHT22;6627;50.920;12.050;2023-04-15T02:16:15;6.80;99.90
13123;DHT22;6627;50.920;12.050;2023-04-15T02:18:45;6.80;99.90
13123;DHT22;6627;50.920;12.050;2023-04-15T02:21:12;6.70;99.90
13123;DHT22;6627;50.920;12.050;2023-04-15T02:26:08;6.70;99.90
13123;DHT22;6627;50.920;12.050;2023-04-15T02:28:36;6.70;99.90
13123;DHT22;6627;50.920;12.050;2023-04-15T02:31:04;6.70;99.90
13123;DHT22;6627;50.920;12.050;2023-04-15T02:33:32;6.70;99.90
13123;DHT22;6627;50.920;12.050;2023-04-15T02:36:00;6.70;99.90
13123;DHT22;6627;50.920;12.050;2023-04-15T02:38:28;6.70;99.90
13123;DHT22;6627;50.920;12.050;2023-04-15T02:40:56;6.80;99.90
13123;DHT22;6627;50.920;12.050;2023-04-15T02:43:23;6.70;99.90
13123;DHT22;6627;50.920;12.050;2023-04-15T02:45:51;6.70;99.90
13123;DHT22;6627;50.920;12.050;2023-04-15T02:48:18;6.70;99.90
13123;DHT22;6627;50.920;12.050;2023-04-15T02:50:46;6.60;99.90
13123;DHT22;6627;50.920;12.050;2023-04-15T02:53:14;6.70;99.90
13123;DHT22;6627;50.920;12.050;2023-04-15T02:55:42;6.70;99.90
13123;DHT22;6627;50.920;12.050;2023-04-15T02:58:09;6.70;99.90
13123;DHT22;6627;50.920;12.050;2023-04-15T03:00:36;6.70;99.90
13123;DHT22;6627;50.920;12.050;2023-04-15T03:03:05;6.70;99.90
13123;DHT22;6627;50.920;12.050;2023-04-15T03:05:32;6.70;99.90
13123;DHT22;6627;50.920;12.050;2023-04-15T03:07:59;6.60;99.90
13123;DHT22;6627;50.920;12.050;2023-04-15T03:10:29;6.60;99.90
13123;DHT22;6627;50.920;12.050;2023-04-15T03:12:56;6.60;99.90
13123;DHT22;6627;50.920;12.050;2023-04-15T03:15:23;6.60;99.90
13123;DHT22;6627;50.920;12.050;2023-04-15T03:17:50;6.60;99.90
13123;DHT22;6627;50.920;12.050;2023-04-15T03:20:18;6.60;99.90
13123;DHT22;6627;50.920;12.050;2023-04-15T03:22:45;6.60;99.90
13123;DHT22;6627;50.920;12.050;2023-04-15T03:25:12;6.60;99.90
13123;DHT22;6627;50.920;12.050;2023-04-15T03:27:40;6.60;99.90
13123;DHT22;6627;50.920;12.050;2023-04-15T03:30:08;6.60;99.90
13123;DHT22;6627;50.920;12.050;2023-04-15T03:32:36;6.60;99.90
13123;DHT22;6627;50.920;12.050;2023-04-15T03:35:04;6.60;99.90
13123;DHT22;6627;50.920;12.050;2023-04-15T03:37:32;6.60;99.90
13123;DHT22;6627;50.920;12.050;2023-04-15T03:39:59;6.60;99.90
13123;DHT22;6627;50.920;12.050;2023-04-15T03:42:26;6.60;99.90
13123;DHT22;6627;50.920;12.050;2023-04-15T03:47:22;6.60;99.90
13123;DHT22;6627;50.920;12.050;2023-04-15T03:49:49;6.60;99.90
13123;DHT22;6627;50.920;12.050;2023-04-15T03:52:16;6.60;99.90
13123;DHT22;6627;50.920;12.050;2023-04-15T03:54:44;6.60;99.90
13123;DHT22;6627;50.920;12.050;2023-04-15T03:57:11;6.60;99.90
13123;DHT22;6627;50.920;12.050;2023-04-15T03:59:38;6.60;99.90
13123;DHT22;6627;50.920;12.050;2023-04-15T04:02:07;6.60;99.90
13123;DHT22;6627;50.920;12.050;2023-04-15T04:07:02;6.60;99.90
13123;DHT22;6627;50.920;12.050;2023-04-15T04:09:29;6.60;99.90
13123;DHT22;6627;50.920;12.050;2023-04-15T04:11:57;6.60;99.90
13123;DHT22;6627;50.920;12.050;2023-04-15T04:14:24;6.60;99.90
13123;DHT22;6627;50.920;12.050;2023-04-15T04:16:54;6.50;99.90
13123;DHT22;6627;50.920;12.050;2023-04-15T04:19:23;6.50;99.90
13123;DHT22;6627;50.920;12.050;2023-04-15T04:21:51;6.50;99.90
13123;DHT22;6627;50.920;12.050;2023-04-15T04:24:18;6.60;99.90
13123;DHT22;6627;50.920;12.050;2023-04-15T04:26:46;6.60;99.90
13123;DHT22;6627;50.920;12.050;2023-04-15T04:29:13;6.60;99.90
13123;DHT22;6627;50.920;12.050;2023-04-15T04:31:40;6.60;99.90
13123;DHT22;6627;50.920;12.050;2023-04-15T04:36:36;6.60;99.90
13123;DHT22;6627;50.920;12.050;2023-04-15T04:39:03;6.50;99.90
13123;DHT22;6627;50.920;12.050;2023-04-15T04:41:30;6.50;99.90
13123;DHT22;6627;50.920;12.050;2023-04-15T04:43:58;6.50;99.90
13123;DHT22;6627;50.920;12.050;2023-04-15T04:46:25;6.50;99.90
13123;DHT22;6627;50.920;12.050;2023-04-15T04:48:52;6.50;99.90
13123;DHT22;6627;50.920;12.050;2023-04-15T04:51:20;6.50;99.90
13123;DHT22;6627;50.920;12.050;2023-04-15T04:53:49;6.50;99.90
13123;DHT22;6627;50.920;12.050;2023-04-15T04:56:16;6.60;99.90
13123;DHT22;6627;50.920;12.050;2023-04-15T04:58:43;6.60;99.90
13123;DHT22;6627;50.920;12.050;2023-04-15T05:01:10;6.50;99.90
13123;DHT22;6627;50.920;12.050;2023-04-15T05:03:38;6.50;99.90
13123;DHT22;6627;50.920;12.050;2023-04-15T05:06:05;6.60;99.90
13123;DHT22;6627;50.920;12.050;2023-04-15T05:08:33;6.50;99.90
13123;DHT22;6627;50.920;12.050;2023-04-15T05:11:02;6.60;99.90
13123;DHT22;6627;50.920;12.050;2023-04-15T05:13:29;6.50;99.90
13123;DHT22;6627;50.920;12.050;2023-04-15T05:15:56;6.50;99.90
13123;DHT22;6627;50.920;12.050;2023-04-15T05:18:23;6.60;99.90
13123;DHT22;6627;50.920;12.050;2023-04-15T05:20:51;6.50;99.90
13123;DHT22;6627;50.920;12.050;2023-04-15T05:23:19;6.60;99.90
13123;DHT22;6627;50.920;12.050;2023-04-15T05:25:46;6.60;99.90
13123;DHT22;6627;50.920;12.050;2023-04-15T05:28:15;6.60;99.90
13123;DHT22;6627;50.920;12.050;2023-04-15T05:30:42;6.60;99.90
13123;DHT22;6627;50.920;12.050;2023-04-15T05:33:09;6.60;99.90
13123;DHT22;6627;50.920;12.050;2023-04-15T05:35:37;6.60;99.90
13123;DHT22;6627;50.920;12.050;2023-04-15T05:38:04;6.60;99.90
13123;DHT22;6627;50.920;12.050;2023-04-15T05:40:31;6.60;99.90
13123;DHT22;6627;50.920;12.050;2023-04-15T05:42:59;6.60;99.90
13123;DHT22;6627;50.920;12.050;2023-04-15T05:45:28;6.60;99.90
13123;DHT22;6627;50.920;12.050;2023-04-15T05:47:55;6.60;99.90
13123;DHT22;6627;50.920;12.050;2023-04-15T05:50:22;6.60;99.90
13123;DHT22;6627;50.920;12.050;2023-04-15T05:52:50;6.60;99.90
13123;DHT22;6627;50.920;12.050;2023-04-15T05:55:18;6.60;99.90
13123;DHT22;6627;50.920;12.050;2023-04-15T05:57:45;6.60;99.90
13123;DHT22;6627;50.920;12.050;2023-04-15T06:00:13;6.60;99.90
13123;DHT22;6627;50.920;12.050;2023-04-15T06:02:42;6.70;99.90
13123;DHT22;6627;50.920;12.050;2023-04-15T06:05:09;6.60;99.90
13123;DHT22;6627;50.920;12.050;2023-04-15T06:07:37;6.60;99.90
13123;DHT22;6627;50.920;12.050;2023-04-15T06:10:05;6.70;99.90
13123;DHT22;6627;50.920;12.050;2023-04-15T06:12:33;6.70;99.90
13123;DHT22;6627;50.920;12.050;2023-04-15T06:15:01;6.70;99.90
13123;DHT22;6627;50.920;12.050;2023-04-15T06:17:28;6.70;99.90
13123;DHT22;6627;50.920;12.050;2023-04-15T06:19:57;6.70;99.90
13123;DHT22;6627;50.920;12.050;2023-04-15T06:22:24;6.70;99.90
13123;DHT22;6627;50.920;12.050;2023-04-15T06:24:51;6.70;99.90
13123;DHT22;6627;50.920;12.050;2023-04-15T06:27:18;6.70;99.90
13123;DHT22;6627;50.920;12.050;2023-04-15T06:29:45;6.70;99.90
13123;DHT22;6627;50.920;12.050;2023-04-15T06:32:12;6.70;99.90
13123;DHT22;6627;50.920;12.050;2023-04-15T06:34:40;6.80;99.90
13123;DHT22;6627;50.920;12.050;2023-04-15T06:37:08;6.80;99.90
13123;DHT22;6627;50.920;12.050;2023-04-15T06:39:40;6.80;99.90
13123;DHT22;6627;50.920;12.050;2023-04-15T06:42:09;6.90;99.90
13123;DHT22;6627;50.920;12.050;2023-04-15T06:47:04;6.80;99.90
13123;DHT22;6627;50.920;12.050;2023-04-15T06:49:31;6.80;99.90
13123;DHT22;6627;50.920;12.050;2023-04-15T06:52:00;6.90;99.90
13123;DHT22;6627;50.920;12.050;2023-04-15T06:54:29;6.90;99.90
13123;DHT22;6627;50.920;12.050;2023-04-15T06:56:56;6.90;99.90
13123;DHT22;6627;50.920;12.050;2023-04-15T06:59:23;6.90;99.90
13123;DHT22;6627;50.920;12.050;2023-04-15T07:01:50;6.90;99.90
13123;DHT22;6627;50.920;12.050;2023-04-15T07:04:17;6.90;99.90
13123;DHT22;6627;50.920;12.050;2023-04-15T07:06:45;6.90;99.90
13123;DHT22;6627;50.920;12.050;2023-04-15T07:09:12;7.00;99.90
13123;DHT22;6627;50.920;12.050;2023-04-15T07:11:41;7.00;99.90
13123;DHT22;6627;50.920;12.050;2023-04-15T07:14:08;7.00;99.90
13123;DHT22;6627;50.920;12.050;2023-04-15T07:16:35;7.00;99.90
13123;DHT22;6627;50.920;12.050;2023-04-15T07:19:02;7.00;99.90
13123;DHT22;6627;50.920;12.050;2023-04-15T07:21:29;7.00;99.90
13123;DHT22;6627;50.920;12.050;2023-04-15T07:23:57;7.10;99.90
13123;DHT22;6627;50.920;12.050;2023-04-15T07:26:24;7.00;99.90
13123;DHT22;6627;50.920;12.050;2023-04-15T07:28:52;7.00;99.90
13123;DHT22;6627;50.920;12.050;2023-04-15T07:31:20;7.00;99.90
13123;DHT22;6627;50.920;12.050;2023-04-15T07:33:47;7.10;99.90
13123;DHT22;6627;50.920;12.050;2023-04-15T07:36:14;7.10;99.90
13123;DHT22;6627;50.920;12.050;2023-04-15T07:38:41;7.10;99.90
13123;DHT22;6627;50.920;12.050;2023-04-15T07:41:08;7.20;99.90
13123;DHT22;6627;50.920;12.050;2023-04-15T07:43:36;7.20;99.90
13123;DHT22;6627;50.920;12.050;2023-04-15T07:46:05;7.20;99.90
13123;DHT22;6627;50.920;12.050;2023-04-15T07:48:33;7.10;99.90
13123;DHT22;6627;50.920;12.050;2023-04-15T07:51:00;7.10;99.90
13123;DHT22;6627;50.920;12.050;2023-04-15T07:53:28;7.10;99.90
13123;DHT22;6627;50.920;12.050;2023-04-15T07:55:55;7.10;99.90
13123;DHT22;6627;50.920;12.050;2023-04-15T07:58:23;7.10;99.90
13123;DHT22;6627;50.920;12.050;2023-04-15T08:00:50;7.10;99.90
13123;DHT22;6627;50.920;12.050;2023-04-15T08:03:19;7.10;99.90
13123;DHT22;6627;50.920;12.050;2023-04-15T08:05:47;7.10;99.90
13123;DHT22;6627;50.920;12.050;2023-04-15T08:08:14;7.10;99.90
13123;DHT22;6627;50.920;12.050;2023-04-15T08:10:41;7.10;99.90
13123;DHT22;6627;50.920;12.050;2023-04-15T08:13:08;7.10;99.90
13123;DHT22;6627;50.920;12.050;2023-04-15T08:15:37;7.10;99.90
13123;DHT22;6627;50.920;12.050;2023-04-15T08:18:05;7.20;99.90
13123;DHT22;6627;50.920;12.050;2023-04-15T08:20:34;7.20;99.90
13123;DHT22;6627;50.920;12.050;2023-04-15T08:23:02;7.20;99.90
13123;DHT22;6627;50.920;12.050;2023-04-15T08:25:29;7.20;99.90
13123;DHT22;6627;50.920;12.050;2023-04-15T08:27:57;7.20;99.90
13123;DHT22;6627;50.920;12.050;2023-04-15T08:30:25;7.20;99.90
13123;DHT22;6627;50.920;12.050;2023-04-15T08:32:52;7.30;99.90
13123;DHT22;6627;50.920;12.050;2023-04-15T08:35:20;7.30;99.90
13123;DHT22;6627;50.920;12.050;2023-04-15T08:37:49;7.30;99.90
13123;DHT22;6627;50.920;12.050;2023-04-15T08:40:17;7.30;99.90
13123;DHT22;6627;50.920;12.050;2023-04-15T08:42:48;7.30;99.90
13123;DHT22;6627;50.920;12.050;2023-04-15T08:45:19;7.40;99.90
13123;DHT22;6627;50.920;12.050;2023-04-15T08:47:47;7.40;99.90
13123;DHT22;6627;50.920;12.050;2023-04-15T08:50:21;7.40;99.90
13123;DHT22;6627;50.920;12.050;2023-04-15T08:52:54;7.50;99.90
13123;DHT22;6627;50.920;12.050;2023-04-15T08:55:23;7.50;99.90
13123;DHT22;6627;50.920;12.050;2023-04-15T08:57:51;7.50;99.90
13123;DHT22;6627;50.920;12.050;2023-04-15T09:00:18;7.50;99.90
13123;DHT22;6627;50.920;12.050;2023-04-15T09:02:46;7.60;99.90
13123;DHT22;6627;50.920;12.050;2023-04-15T09:05:13;7.60;99.90
13123;DHT22;6627;50.920;12.050;2023-04-15T09:07:41;7.60;99.90
13123;DHT22;6627;50.920;12.050;2023-04-15T09:10:10;7.70;99.90
13123;DHT22;6627;50.920;12.050;2023-04-15T09:12:39;7.70;99.90
13123;DHT22;6627;50.920;12.050;2023-04-15T09:15:10;7.80;99.90
13123;DHT22;6627;50.920;12.050;2023-04-15T09:17:41;7.80;99.90
13123;DHT22;6627;50.920;12.050;2023-04-15T09:20:11;7.90;99.90
13123;DHT22;6627;50.920;12.050;2023-04-15T09:22:40;8.00;99.90
13123;DHT22;6627;50.920;12.050;2023-04-15T09:25:31;8.00;99.90
13123;DHT22;6627;50.920;12.050;2023-04-15T09:28:00;8.00;99.90
13123;DHT22;6627;50.920;12.050;2023-04-15T09:30:30;7.90;99.90
13123;DHT22;6627;50.920;12.050;2023-04-15T09:32:59;8.00;99.90
13123;DHT22;6627;50.920;12.050;2023-04-15T09:35:27;8.00;99.90
13123;DHT22;6627;50.920;12.050;2023-04-15T09:38:02;8.00;99.90
13123;DHT22;6627;50.920;12.050;2023-04-15T09:40:33;8.00;99.90
13123;DHT22;6627;50.920;12.050;2023-04-15T09:43:02;8.10;99.90
13123;DHT22;6627;50.920;12.050;2023-04-15T09:45:32;8.10;99.90
13123;DHT22;6627;50.920;12.050;2023-04-15T09:48:15;8.10;99.90
13123;DHT22;6627;50.920;12.050;2023-04-15T09:50:44;8.00;99.90
13123;DHT22;6627;50.920;12.050;2023-04-15T09:53:15;8.00;99.90
13123;DHT22;6627;50.920;12.050;2023-04-15T09:55:48;8.10;99.90
13123;DHT22;6627;50.920;12.050;2023-04-15T09:58:20;8.00;99.90
13123;DHT22;6627;50.920;12.050;2023-04-15T10:00:50;8.10;99.90
13123;DHT22;6627;50.920;12.050;2023-04-15T10:03:20;8.10;99.90
13123;DHT22;6627;50.920;12.050;2023-04-15T10:05:49;8.10;99.90
13123;DHT22;6627;50.920;12.050;2023-04-15T10:10:48;8.20;99.90
13123;DHT22;6627;50.920;12.050;2023-04-15T10:13:18;8.40;99.90
13123;DHT22;6627;50.920;12.050;2023-04-15T10:15:50;8.40;99.90
13123;DHT22;6627;50.920;12.050;2023-04-15T10:18:20;8.30;99.90
13123;DHT22;6627;50.920;12.050;2023-04-15T10:20:52;8.20;99.90
13123;DHT22;6627;50.920;12.050;2023-04-15T10:23:22;8.20;99.90
13123;DHT22;6627;50.920;12.050;2023-04-15T10:25:52;8.30;99.90
13123;DHT22;6627;50.920;12.050;2023-04-15T10:28:20;8.30;99.90
13123;DHT22;6627;50.920;12.050;2023-04-15T10:30:53;8.20;99.90
13123;DHT22;6627;50.920;12.050;2023-04-15T10:33:23;8.20;99.90
13123;DHT22;6627;50.920;12.050;2023-04-15T10:35:53;8.20;99.90
13123;DHT22;6627;50.920;12.050;2023-04-15T10:38:32;8.30;99.90
13123;DHT22;6627;50.920;12.050;2023-04-15T10:41:16;8.30;99.90
13123;DHT22;6627;50.920;12.050;2023-04-15T10:43:46;8.40;99.90
13123;DHT22;6627;50.920;12.050;2023-04-15T10:46:23;8.20;99.90
13123;DHT22;6627;50.920;12.050;2023-04-15T10:49:07;8.20;99.90
13123;DHT22;6627;50.920;12.050;2023-04-15T10:51:37;8.30;99.90
13123;DHT22;6627;50.920;12.050;2023-04-15T10:54:08;8.30;99.90
13123;DHT22;6627;50.920;12.050;2023-04-15T10:56:42;8.30;99.90
13123;DHT22;6627;50.920;12.050;2023-04-15T10:59:09;8.40;99.90
13123;DHT22;6627;50.920;12.050;2023-04-15T11:01:50;8.40;99.90
13123;DHT22;6627;50.920;12.050;2023-04-15T11:04:51;8.50;99.90
13123;DHT22;6627;50.920;12.050;2023-04-15T11:07:37;8.60;99.90
13123;DHT22;6627;50.920;12.050;2023-04-15T11:13:25;8.60;99.90
13123;DHT22;6627;50.920;12.050;2023-04-15T11:16:00;8.60;99.90
13123;DHT22;6627;50.920;12.050;2023-04-15T11:18:31;8.60;99.90
13123;DHT22;6627;50.920;12.050;2023-04-15T11:21:01;8.60;99.90
13123;DHT22;6627;50.920;12.050;2023-04-15T11:23:33;8.60;99.90
13123;DHT22;6627;50.920;12.050;2023-04-15T11:26:03;8.60;99.90
13123;DHT22;6627;50.920;12.050;2023-04-15T11:28:35;8.70;99.90
13123;DHT22;6627;50.920;12.050;2023-04-15T11:31:06;8.70;99.90
13123;DHT22;6627;50.920;12.050;2023-04-15T11:33:37;8.70;99.90
13123;DHT22;6627;50.920;12.050;2023-04-15T11:36:10;8.60;99.90
13123;DHT22;6627;50.920;12.050;2023-04-15T11:38:41;8.60;99.90
13123;DHT22;6627;50.920;12.050;2023-04-15T11:41:10;8.60;99.90
13123;DHT22;6627;50.920;12.050;2023-04-15T11:43:40;8.60;99.90
13123;DHT22;6627;50.920;12.050;2023-04-15T11:46:07;8.60;99.90
13123;DHT22;6627;50.920;12.050;2023-04-15T11:48:35;8.60;99.90
13123;DHT22;6627;50.920;12.050;2023-04-15T11:51:04;8.70;99.90
13123;DHT22;6627;50.920;12.050;2023-04-15T11:53:38;8.70;99.90
13123;DHT22;6627;50.920;12.050;2023-04-15T11:56:15;8.60;99.90
13123;DHT22;6627;50.920;12.050;2023-04-15T11:58:45;8.70;99.90
13123;DHT22;6627;50.920;12.050;2023-04-15T12:01:15;8.80;99.90
13123;DHT22;6627;50.920;12.050;2023-04-15T12:04:10;8.70;99.90
13123;DHT22;6627;50.920;12.050;2023-04-15T12:06:38;8.80;99.90
13123;DHT22;6627;50.920;12.050;2023-04-15T12:09:10;8.80;99.90
13123;DHT22;6627;50.920;12.050;2023-04-15T12:11:40;8.80;99.90
13123;DHT22;6627;50.920;12.050;2023-04-15T12:14:15;8.90;99.90
13123;DHT22;6627;50.920;12.050;2023-04-15T12:16:48;8.90;99.90
13123;DHT22;6627;50.920;12.050;2023-04-15T12:19:25;8.90;99.90
13123;DHT22;6627;50.920;12.050;2023-04-15T12:21:57;8.90;99.90
13123;DHT22;6627;50.920;12.050;2023-04-15T12:24:26;9.00;99.90
13123;DHT22;6627;50.920;12.050;2023-04-15T12:26:55;9.00;99.90
13123;DHT22;6627;50.920;12.050;2023-04-15T12:29:26;9.10;99.90
13123;DHT22;6627;50.920;12.050;2023-04-15T12:31:56;9.10;99.90
13123;DHT22;6627;50.920;12.050;2023-04-15T12:34:28;9.10;99.90
13123;DHT22;6627;50.920;12.050;2023-04-15T12:36:56;9.00;99.90
13123;DHT22;6627;50.920;12.050;2023-04-15T12:39:26;9.10;99.90
13123;DHT22;6627;50.920;12.050;2023-04-15T12:41:57;9.10;99.90
13123;DHT22;6627;50.920;12.050;2023-04-15T12:44:27;9.10;99.90
13123;DHT22;6627;50.920;12.050;2023-04-15T12:46:54;9.10;99.90
13123;DHT22;6627;50.920;12.050;2023-04-15T12:49:22;9.10;99.90
13123;DHT22;6627;50.920;12.050;2023-04-15T12:51:52;9.00;99.90
13123;DHT22;6627;50.920;12.050;2023-04-15T12:54:22;9.10;99.90
13123;DHT22;6627;50.920;12.050;2023-04-15T12:56:50;9.10;99.90
13123;DHT22;6627;50.920;12.050;2023-04-15T12:59:30;9.10;99.90
13123;DHT22;6627;50.920;12.050;2023-04-15T13:01:57;9.10;99.90
13123;DHT22;6627;50.920;12.050;2023-04-15T13:04:25;9.20;99.90
13123;DHT22;6627;50.920;12.050;2023-04-15T13:06:55;9.20;99.90
13123;DHT22;6627;50.920;12.050;2023-04-15T13:09:22;9.30;99.90
13123;DHT22;6627;50.920;12.050;2023-04-15T13:11:49;9.30;99.90
13123;DHT22;6627;50.920;12.050;2023-04-15T13:14:17;9.30;99.90
13123;DHT22;6627;50.920;12.050;2023-04-15T13:16:45;9.30;99.90
13123;DHT22;6627;50.920;12.050;2023-04-15T13:19:13;9.30;99.90
13123;DHT22;6627;50.920;12.050;2023-04-15T13:21:40;9.30;99.90
13123;DHT22;6627;50.920;12.050;2023-04-15T13:24:10;9.30;99.90
13123;DHT22;6627;50.920;12.050;2023-04-15T13:26:37;9.40;99.90
13123;DHT22;6627;50.920;12.050;2023-04-15T13:29:04;9.50;99.90
13123;DHT22;6627;50.920;12.050;2023-04-15T13:31:32;9.50;99.90
13123;DHT22;6627;50.920;12.050;2023-04-15T13:34:00;9.50;99.90
13123;DHT22;6627;50.920;12.050;2023-04-15T13:36:27;9.50;99.90
13123;DHT22;6627;50.920;12.050;2023-04-15T13:38:54;9.50;99.90
13123;DHT22;6627;50.920;12.050;2023-04-15T13:41:22;9.60;99.90
13123;DHT22;6627;50.920;12.050;2023-04-15T13:43:49;9.60;99.90
13123;DHT22;6627;50.920;12.050;2023-04-15T13:46:16;9.50;99.90
13123;DHT22;6627;50.920;12.050;2023-04-15T13:48:44;9.50;99.90
13123;DHT22;6627;50.920;12.050;2023-04-15T13:51:12;9.50;99.90
13123;DHT22;6627;50.920;12.050;2023-04-15T13:53:39;9.60;99.90
13123;DHT22;6627;50.920;12.050;2023-04-15T13:56:07;9.50;99.90
13123;DHT22;6627;50.920;12.050;2023-04-15T13:58:34;9.50;99.90
13123;DHT22;6627;50.920;12.050;2023-04-15T14:01:02;9.60;99.90
13123;DHT22;6627;50.920;12.050;2023-04-15T14:03:30;9.60;99.90
13123;DHT22;6627;50.920;12.050;2023-04-15T14:05:57;9.60;99.90
13123;DHT22;6627;50.920;12.050;2023-04-15T14:08:26;9.60;99.90
13123;DHT22;6627;50.920;12.050;2023-04-15T14:10:54;9.70;99.90
13123;DHT22;6627;50.920;12.050;2023-04-15T14:13:23;9.70;99.90
13123;DHT22;6627;50.920;12.050;2023-04-15T14:15:50;9.70;99.90
13123;DHT22;6627;50.920;12.050;2023-04-15T14:18:17;9.70;99.90
13123;DHT22;6627;50.920;12.050;2023-04-15T14:20:44;9.70;99.90
13123;DHT22;6627;50.920;12.050;2023-04-15T14:23:12;9.80;99.90
13123;DHT22;6627;50.920;12.050;2023-04-15T14:25:42;9.80;99.90
13123;DHT22;6627;50.920;12.050;2023-04-15T14:28:09;9.70;99.90
13123;DHT22;6627;50.920;12.050;2023-04-15T14:30:37;9.80;99.90
13123;DHT22;6627;50.920;12.050;2023-04-15T14:33:04;9.80;99.90
13123;DHT22;6627;50.920;12.050;2023-04-15T14:35:31;9.80;99.90
13123;DHT22;6627;50.920;12.050;2023-04-15T14:37:58;9.80;99.90
13123;DHT22;6627;50.920;12.050;2023-04-15T14:40:25;9.80;99.90
13123;DHT22;6627;50.920;12.050;2023-04-15T14:42:54;9.90;99.90
13123;DHT22;6627;50.920;12.050;2023-04-15T14:45:21;9.90;99.90
13123;DHT22;6627;50.920;12.050;2023-04-15T14:47:48;9.90;99.90
13123;DHT22;6627;50.920;12.050;2023-04-15T14:50:16;9.90;99.90
13123;DHT22;6627;50.920;12.050;2023-04-15T14:52:43;9.90;99.90
13123;DHT22;6627;50.920;12.050;2023-04-15T14:55:11;10.00;99.90
13123;DHT22;6627;50.920;12.050;2023-04-15T14:57:40;10.00;99.90
13123;DHT22;6627;50.920;12.050;2023-04-15T15:00:10;10.00;99.90
13123;DHT22;6627;50.920;12.050;2023-04-15T15:02:38;10.00;99.90
13123;DHT22;6627;50.920;12.050;2023-04-15T15:05:06;10.10;99.90
13123;DHT22;6627;50.920;12.050;2023-04-15T15:07:33;10.10;99.90
13123;DHT22;6627;50.920;12.050;2023-04-15T15:10:01;10.10;99.90
13123;DHT22;6627;50.920;12.050;2023-04-15T15:12:29;10.20;99.90
13123;DHT22;6627;50.920;12.050;2023-04-15T15:14:56;10.10;99.90
13123;DHT22;6627;50.920;12.050;2023-04-15T15:17:26;10.20;99.90
13123;DHT22;6627;50.920;12.050;2023-04-15T15:19:53;10.20;99.90
13123;DHT22;6627;50.920;12.050;2023-04-15T15:22:20;10.20;99.90
13123;DHT22;6627;50.920;12.050;2023-04-15T15:25:07;10.10;99.90
13123;DHT22;6627;50.920;12.050;2023-04-15T15:27:34;10.10;99.90
13123;DHT22;6627;50.920;12.050;2023-04-15T15:30:02;10.00;99.90
13123;DHT22;6627;50.920;12.050;2023-04-15T15:32:32;10.00;99.90
13123;DHT22;6627;50.920;12.050;2023-04-15T15:35:00;10.10;99.90
13123;DHT22;6627;50.920;12.050;2023-04-15T15:37:29;10.10;99.90
13123;DHT22;6627;50.920;12.050;2023-04-15T15:39:59;10.10;99.90
13123;DHT22;6627;50.920;12.050;2023-04-15T15:42:30;10.20;99.90
13123;DHT22;6627;50.920;12.050;2023-04-15T15:44:57;10.10;99.90
13123;DHT22;6627;50.920;12.050;2023-04-15T15:47:25;10.10;99.90
13123;DHT22;6627;50.920;12.050;2023-04-15T15:49:54;10.20;99.90
13123;DHT22;6627;50.920;12.050;2023-04-15T15:52:21;10.20;99.90
13123;DHT22;6627;50.920;12.050;2023-04-15T15:54:48;10.30;99.90
13123;DHT22;6627;50.920;12.050;2023-04-15T15:57:15;10.30;99.90
13123;DHT22;6627;50.920;12.050;2023-04-15T16:00:02;10.30;99.90
13123;DHT22;6627;50.920;12.050;2023-04-15T16:02:29;10.30;99.90
13123;DHT22;6627;50.920;12.050;2023-04-15T16:04:59;10.20;99.90
13123;DHT22;6627;50.920;12.050;2023-04-15T16:07:26;10.30;99.90
13123;DHT22;6627;50.920;12.050;2023-04-15T16:09:53;10.30;99.90
13123;DHT22;6627;50.920;12.050;2023-04-15T16:12:20;10.30;99.90
13123;DHT22;6627;50.920;12.050;2023-04-15T16:14:47;10.30;99.90
13123;DHT22;6627;50.920;12.050;2023-04-15T16:17:15;10.30;99.90
13123;DHT22;6627;50.920;12.050;2023-04-15T16:19:42;10.30;99.90
13123;DHT22;6627;50.920;12.050;2023-04-15T16:22:12;10.40;99.90
13123;DHT22;6627;50.920;12.050;2023-04-15T16:24:40;10.40;99.90